バクー の空港の天気 - METARとTAF

ヘイダル・アリエフ国際空港(バクー) ( UBBB / BAK ) - アゼルバイジャン バクー
飛行場実況気象(Metar)
観測時間10/16 12:00 AZT (10/16 08:00 UTC)
風向・風速西 2m/s
視程10km以上
天気現象
なし
気温24℃
湿度57%
気圧1020hPa
METARUBBB 160800Z 27003KT CAVOK 24/15 Q1020 R88/CLRD// NOSIG
過去の天気等 Google飛行場航空写真 Wunderground天気予報

過去48時間のMETAR

飛行場予報(TAF)
発表時間: 10/16 09:26 AZT (10/16 05:26 UTC)
予報対象時間: 16日10時 AZT ~ 17日10時 AZT
風向・風速西 3m/s
視程10km以上
なし
16日10時 AZT ~ 16日12時 AZT に一時的に
風向・風速不定 2m/s
全天の4割程度の雲 雲底高度 370m
16日12時 AZT ~ 16日14時 AZT に徐々に
風向・風速北北西 5m/s
全天の4割程度の雲 雲底高度 610m
全天の4割程度の雲 雲底高度 3050m
16日14時 AZT ~ 17日2時 AZT に一時的に
風向・風速北北東 3m/s
17日2時 AZT ~ 17日8時 AZT に一時的に
風向・風速北西 3m/s
視程3000m
天気現象もや
全天の8割程度の雲 雲底高度 180m
TAF UBBB 160526Z 1606/1706 28006KT CAVOK TX22/1611Z TN15/1702Z
TEMPO 1606/1608 VRB04KT SCT012
BECMG 1608/1610 34010KT SCT020 SCT100
TEMPO 1610/1622 02006KT
TEMPO 1622/1704 31006KT 3000 BR BKN006